Time;durP1;ratioP1;P1;durP2;ratioP2;P2;SDS_P1;SDS_P2;PMS_P1;PMS_P2;Temp;Humidity;BMP_temperature;BMP_pressure;BME280_temperature;BME280_humidity;BME280_pressure;Samples;Min_cycle;Max_cycle;Signal;HPM_P1;HPM_P2
2022/01/03 00:00:45;;;;;;;21.60;3.83;;;;;;;10.18;81.84;101093.06;5011523;28;20029;-60
2022/01/03 00:03:14;;;;;;;25.40;4.68;;;;;;;10.09;82.40;101098.00;5025088;28;20049;-59
2022/01/03 00:05:40;;;;;;;23.17;3.80;;;;;;;10.19;81.75;101084.63;5025071;28;20025;-60
2022/01/03 00:08:06;;;;;;;27.33;4.32;;;;;;;9.96;82.98;101098.09;5021839;28;20420;-59
2022/01/03 00:10:33;;;;;;;22.08;4.13;;;;;;;9.96;82.77;101103.56;5025565;28;20064;-61
2022/01/03 00:12:59;;;;;;;25.60;4.20;;;;;;;9.92;83.20;101102.31;5025845;28;20515;-60
2022/01/03 00:15:25;;;;;;;22.10;4.55;;;;;;;9.90;83.34;101101.72;5024742;28;20025;-60
2022/01/03 00:17:53;;;;;;;24.05;4.47;;;;;;;9.93;83.41;101109.50;5024705;28;20030;-60
2022/01/03 00:20:19;;;;;;;24.02;3.92;;;;;;;9.93;83.04;101114.97;5023709;28;20095;-60
2022/01/03 00:22:52;;;;;;;18.80;4.30;;;;;;;9.96;83.00;101117.28;5025400;28;20069;-60
2022/01/03 00:25:20;;;;;;;30.95;5.47;;;;;;;9.85;83.26;101114.19;5025033;28;20104;-59
2022/01/03 00:27:57;;;;;;;25.20;4.50;;;;;;;9.97;82.88;101110.75;5025304;28;20029;-60
2022/01/03 00:30:24;;;;;;;22.95;3.70;;;;;;;9.91;82.92;101100.66;5024721;28;20037;-59
2022/01/03 00:32:51;;;;;;;26.38;4.07;;;;;;;9.84;83.49;101118.00;5023707;28;20916;-60
2022/01/03 00:35:17;;;;;;;22.23;3.97;;;;;;;9.95;82.29;101112.88;5024245;28;20083;-60
2022/01/03 00:37:45;;;;;;;25.30;4.97;;;;;;;9.86;83.12;101110.38;5007681;28;20037;-60
2022/01/03 00:40:12;;;;;;;20.50;4.50;;;;;;;9.82;82.96;101109.13;5010304;28;20108;-60
2022/01/03 00:42:38;;;;;;;21.27;4.40;;;;;;;9.88;82.43;101102.78;5024700;28;20277;-60
2022/01/03 00:45:04;;;;;;;20.73;4.25;;;;;;;9.93;81.81;101107.59;5024717;28;20040;-61
2022/01/03 00:47:33;;;;;;;18.73;3.83;;;;;;;10.14;80.90;101106.41;5024605;28;20025;-60
2022/01/03 00:50:08;;;;;;;22.02;4.45;;;;;;;10.02;81.78;101109.00;5023092;28;20029;-60
2022/01/03 00:52:33;;;;;;;25.75;5.00;;;;;;;10.02;81.48;101099.94;5025193;28;20026;-59
2022/01/03 00:54:58;;;;;;;24.42;4.72;;;;;;;10.04;80.94;101114.31;5024335;28;20038;-60
2022/01/03 00:57:50;;;;;;;23.95;3.70;;;;;;;9.99;81.65;101111.38;5023786;28;20037;-60
2022/01/03 01:00:16;;;;;;;22.45;4.65;;;;;;;9.95;82.01;101119.19;5016628;28;20049;-60
2022/01/03 01:02:50;;;;;;;27.08;4.93;;;;;;;10.03;81.50;101118.09;5022954;28;20048;-60
2022/01/03 01:05:17;;;;;;;20.00;3.78;;;;;;;10.02;81.24;101108.16;5019981;28;20373;-60
2022/01/03 01:07:46;;;;;;;25.92;4.05;;;;;;;10.06;80.90;101114.91;5024485;28;20109;-60
2022/01/03 01:10:12;;;;;;;18.73;3.70;;;;;;;10.05;81.02;101118.72;5005726;28;20080;-60
2022/01/03 01:12:38;;;;;;;26.77;4.22;;;;;;;10.02;80.99;101116.41;5014924;28;20037;-60
2022/01/03 01:15:03;;;;;;;28.02;4.88;;;;;;;10.06;80.72;101118.50;5022839;28;20115;-61
2022/01/03 01:17:29;;;;;;;25.08;4.88;;;;;;;10.01;81.16;101123.81;5023620;28;20033;-60
2022/01/03 01:19:56;;;;;;;22.00;4.20;;;;;;;10.16;80.38;101130.91;5024332;28;20435;-60
2022/01/03 01:22:22;;;;;;;26.98;4.78;;;;;;;10.04;81.26;101125.28;5017390;28;20042;-60
2022/01/03 01:25:11;;;;;;;24.63;5.38;;;;;;;10.20;79.98;101122.00;5023921;28;20032;-60
2022/01/03 01:27:49;;;;;;;24.90;4.68;;;;;;;10.14;80.41;101133.88;5023216;28;20033;-60
2022/01/03 01:30:17;;;;;;;29.92;5.82;;;;;;;10.01;81.50;101145.75;5023635;28;20025;-60
2022/01/03 01:32:48;;;;;;;27.67;4.75;;;;;;;10.06;80.66;101143.19;5020327;28;20481;-60
2022/01/03 01:35:14;;;;;;;21.90;4.95;;;;;;;9.84;82.02;101145.44;5005565;28;20148;-60
2022/01/03 01:37:43;;;;;;;22.10;4.32;;;;;;;9.92;81.04;101146.22;5024706;28;20041;-60
2022/01/03 01:40:10;;;;;;;28.88;4.72;;;;;;;9.83;81.31;101151.97;5023753;28;20057;-60
2022/01/03 01:42:37;;;;;;;27.70;4.97;;;;;;;9.91;81.05;101150.03;5023553;28;20029;-60
2022/01/03 01:45:08;;;;;;;24.67;4.07;;;;;;;9.91;80.69;101147.28;5022263;28;20040;-63
2022/01/03 01:47:38;;;;;;;20.40;4.50;;;;;;;10.11;80.50;101139.78;5023566;28;20037;-59
2022/01/03 01:50:05;;;;;;;23.13;4.13;;;;;;;10.02;79.81;101141.94;5022278;28;20404;-60
2022/01/03 01:52:34;;;;;;;22.33;4.60;;;;;;;10.07;80.49;101149.50;5024452;28;20095;-60
2022/01/03 01:55:03;;;;;;;23.83;4.82;;;;;;;9.97;80.27;101143.66;5023435;28;20022;-60
2022/01/03 01:58:03;;;;;;;24.48;4.00;;;;;;;10.18;79.23;101140.56;5012630;28;20041;-60
2022/01/03 02:00:29;;;;;;;22.52;4.80;;;;;;;9.97;80.13;101132.69;5020384;28;20499;-60
2022/01/03 02:03:13;;;;;;;26.30;4.30;;;;;;;9.77;80.85;101135.53;5022963;28;20068;-59
2022/01/03 02:05:41;;;;;;;22.33;5.18;;;;;;;9.76;81.07;101144.81;5023312;28;20101;-59
2022/01/03 02:08:15;;;;;;;17.05;4.25;;;;;;;9.69;81.41;101141.28;5022716;28;20029;-60
2022/01/03 02:10:49;;;;;;;21.80;5.38;;;;;;;9.74;81.17;101142.31;5021641;28;20067;-60
2022/01/03 02:13:16;;;;;;;24.77;4.15;;;;;;;9.55;81.60;101135.84;5023210;28;20056;-60
2022/01/03 02:15:46;;;;;;;22.80;4.00;;;;;;;9.67;80.89;101149.72;5020123;28;20057;-60
2022/01/03 02:18:11;;;;;;;23.75;4.22;;;;;;;9.59;81.40;101144.50;5012505;28;20418;-60
2022/01/03 02:20:36;;;;;;;22.02;3.67;;;;;;;9.51;81.90;101140.06;5020649;28;20536;-60
2022/01/03 02:23:02;;;;;;;24.80;4.60;;;;;;;9.53;81.93;101148.06;5015770;28;20113;-61
2022/01/03 02:25:27;;;;;;;22.08;4.28;;;;;;;9.43;82.32;101147.69;5023791;28;20141;-60
2022/01/03 02:27:54;;;;;;;22.17;4.32;;;;;;;9.42;82.44;101149.59;5024125;28;20025;-60
2022/01/03 02:30:27;;;;;;;24.80;4.82;;;;;;;9.59;81.72;101139.00;5023377;28;20026;-60
2022/01/03 02:32:53;;;;;;;21.83;4.10;;;;;;;9.46;82.35;101141.78;5021242;28;20025;-59
2022/01/03 02:35:18;;;;;;;24.77;4.43;;;;;;;9.48;82.10;101150.63;5014200;28;20040;-60
2022/01/03 02:37:45;;;;;;;23.67;4.85;;;;;;;9.32;82.58;101147.28;5004612;28;20097;-60
2022/01/03 02:40:11;;;;;;;25.13;4.15;;;;;;;9.40;82.22;101150.88;5021205;28;20044;-60
2022/01/03 02:42:37;;;;;;;25.83;4.70;;;;;;;9.36;82.43;101137.59;5023744;28;20433;-60
2022/01/03 02:45:08;;;;;;;21.25;5.63;;;;;;;9.36;82.52;101147.72;5016609;28;20397;-61
2022/01/03 02:47:34;;;;;;;26.67;4.70;;;;;;;9.42;81.74;101154.22;5003323;28;20022;-60
2022/01/03 02:50:00;;;;;;;25.23;4.43;;;;;;;9.26;83.18;101153.66;5023256;28;20037;-59
2022/01/03 02:52:25;;;;;;;26.13;4.72;;;;;;;9.26;83.06;101153.66;5023009;28;20091;-60
2022/01/03 02:54:51;;;;;;;23.85;4.22;;;;;;;9.27;83.45;101151.75;5024857;28;20738;-60
2022/01/03 02:57:22;;;;;;;26.58;5.18;;;;;;;9.21;83.52;101147.97;5024903;28;20033;-60
2022/01/03 02:59:53;;;;;;;23.10;5.28;;;;;;;9.27;83.59;101144.34;5026678;28;20053;-60
2022/01/03 03:02:21;;;;;;;28.52;5.30;;;;;;;9.32;83.07;101141.81;5025788;28;20025;-59
2022/01/03 03:04:57;;;;;;;29.23;5.55;;;;;;;9.32;83.18;101150.03;5020046;22;20070;-60
2022/01/03 03:07:25;;;;;;;25.15;5.15;;;;;;;9.25;83.61;101151.97;5003372;28;20112;-60
2022/01/03 03:09:51;;;;;;;20.58;5.03;;;;;;;9.30;83.39;101154.91;4999043;28;20037;-60
2022/01/03 03:12:17;;;;;;;23.85;6.32;;;;;;;9.27;83.18;101151.75;5003589;28;20033;-60
2022/01/03 03:14:43;;;;;;;27.25;4.97;;;;;;;9.34;83.15;101150.69;5015797;28;20036;-60
2022/01/03 03:17:08;;;;;;;29.75;6.13;;;;;;;9.30;83.13;101156.81;5013825;28;20030;-60
2022/01/03 03:19:52;;;;;;;27.23;6.60;;;;;;;9.34;83.71;101156.16;5010169;28;20427;-60
2022/01/03 03:22:17;;;;;;;25.40;5.68;;;;;;;9.36;82.95;101165.00;5004530;28;20105;-59
2022/01/03 03:24:43;;;;;;;22.08;5.70;;;;;;;9.39;82.92;101157.44;5006708;28;20113;-60
2022/01/03 03:27:09;;;;;;;31.13;5.93;;;;;;;9.29;83.75;101166.09;5005052;28;20109;-60
2022/01/03 03:29:34;;;;;;;28.63;5.63;;;;;;;9.38;83.67;101161.19;4996327;28;20105;-60
2022/01/03 03:32:00;;;;;;;22.90;5.05;;;;;;;9.40;83.65;101164.59;4987117;28;20105;-60
2022/01/03 03:34:26;;;;;;;22.25;5.45;;;;;;;9.42;83.22;101159.72;4995421;28;20046;-59
2022/01/03 03:36:51;;;;;;;28.77;5.60;;;;;;;9.39;83.64;101158.25;5005910;28;20029;-59
2022/01/03 03:39:16;;;;;;;20.10;5.35;;;;;;;9.41;83.95;101158.88;5008093;28;20038;-60
2022/01/03 03:41:42;;;;;;;26.60;6.25;;;;;;;9.47;83.25;101159.91;4985466;28;20062;-60
2022/01/03 03:44:08;;;;;;;26.77;5.68;;;;;;;9.48;83.33;101162.47;5002542;28;20544;-60
2022/01/03 03:46:33;;;;;;;23.45;5.07;;;;;;;9.41;83.71;101158.03;5001617;28;20092;-60
2022/01/03 03:48:58;;;;;;;32.53;5.88;;;;;;;9.55;83.14;101156.94;5003391;28;20038;-60
2022/01/03 03:51:23;;;;;;;21.10;6.00;;;;;;;9.53;83.05;101150.81;5005846;28;20026;-60
2022/01/03 03:53:48;;;;;;;24.20;4.97;;;;;;;9.52;83.24;101147.22;4986536;28;20409;-60
2022/01/03 03:56:14;;;;;;;26.50;5.68;;;;;;;9.56;82.64;101139.44;4986419;28;20190;-59
2022/01/03 03:58:39;;;;;;;22.42;5.40;;;;;;;9.50;83.35;101138.41;5004007;28;20030;-59
2022/01/03 04:01:04;;;;;;;25.98;6.38;;;;;;;9.40;84.37;101139.91;4989282;28;20036;-60
2022/01/03 04:03:30;;;;;;;26.52;5.75;;;;;;;9.42;83.95;101148.75;5007266;28;20468;-60
2022/01/03 04:05:55;;;;;;;24.80;5.72;;;;;;;9.52;82.86;101136.25;5006588;28;20029;-60
2022/01/03 04:08:20;;;;;;;27.08;5.65;;;;;;;9.53;83.26;101132.50;4992444;28;20289;-60
2022/01/03 04:10:45;;;;;;;27.58;6.20;;;;;;;9.52;83.22;101141.75;4986079;28;20030;-60
2022/01/03 04:13:11;;;;;;;30.55;6.25;;;;;;;9.41;83.59;101136.09;4994200;28;20460;-60
2022/01/03 04:15:36;;;;;;;23.17;5.10;;;;;;;9.41;83.89;101141.59;5005155;28;20038;-60
2022/01/03 04:18:01;;;;;;;29.90;6.57;;;;;;;9.34;83.67;101131.50;5004655;28;20410;-64
2022/01/03 04:20:26;;;;;;;26.58;5.75;;;;;;;9.37;83.79;101132.94;5025157;28;20463;-59
2022/01/03 04:22:52;;;;;;;27.05;5.70;;;;;;;9.36;83.63;101126.63;4993327;28;20030;-59
2022/01/03 04:25:17;;;;;;;26.15;5.57;;;;;;;9.32;84.53;101124.53;4985547;28;20034;-59
2022/01/03 04:27:42;;;;;;;27.90;5.82;;;;;;;9.45;83.69;101129.97;5003121;28;20022;-59
2022/01/03 04:30:09;;;;;;;29.75;6.00;;;;;;;9.27;84.25;101116.09;5000863;28;20058;-60
2022/01/03 04:32:34;;;;;;;32.45;5.32;;;;;;;9.30;84.20;101124.75;4997183;28;20547;-60
2022/01/03 04:34:59;;;;;;;25.58;5.47;;;;;;;9.27;84.68;101125.16;4986808;28;20064;-60
2022/01/03 04:37:24;;;;;;;26.83;5.43;;;;;;;9.25;85.01;101120.97;4986511;28;20082;-59
2022/01/03 04:39:50;;;;;;;20.98;4.35;;;;;;;9.37;84.27;101127.47;5005922;28;20101;-60
2022/01/03 04:42:15;;;;;;;27.65;5.15;;;;;;;9.33;84.52;101126.25;4995558;28;20027;-60
2022/01/03 04:44:40;;;;;;;27.33;5.97;;;;;;;9.44;83.91;101132.94;4986326;28;20073;-60
2022/01/03 04:47:05;;;;;;;25.08;5.80;;;;;;;9.43;84.19;101126.63;4988145;28;20034;-60
2022/01/03 04:49:31;;;;;;;28.05;5.25;;;;;;;9.48;83.85;101124.06;4990119;28;20064;-59
2022/01/03 04:51:56;;;;;;;31.00;5.95;;;;;;;9.39;84.14;101089.72;4995829;28;20767;-59
2022/01/03 04:54:21;;;;;;;24.65;5.10;;;;;;;9.45;83.77;101115.44;4999086;28;20040;-60
2022/01/03 04:56:47;;;;;;;28.60;5.20;;;;;;;9.56;83.27;101121.06;5024828;28;20034;-59
2022/01/03 04:59:12;;;;;;;24.92;4.57;;;;;;;9.61;82.98;101114.94;5011568;28;20587;-60
2022/01/03 05:01:37;;;;;;;28.67;5.50;;;;;;;9.54;83.42;101116.88;5034243;28;20103;-60
2022/01/03 05:04:02;;;;;;;28.10;6.38;;;;;;;9.44;83.62;101116.50;4988324;28;20144;-61
2022/01/03 05:06:29;;;;;;;28.27;5.15;;;;;;;9.42;83.80;101113.94;4991229;28;20484;-59
2022/01/03 05:08:54;;;;;;;29.65;5.95;;;;;;;9.47;83.38;101107.81;4998550;28;20290;-60
2022/01/03 05:11:19;;;;;;;25.90;4.57;;;;;;;9.45;83.63;101108.03;4997404;28;20014;-59
2022/01/03 05:13:45;;;;;;;29.17;5.55;;;;;;;9.47;83.58;101118.78;4986676;28;20037;-60
2022/01/03 05:16:10;;;;;;;26.10;5.13;;;;;;;9.40;83.88;101109.75;4985324;28;20115;-59
2022/01/03 05:18:36;;;;;;;28.30;6.30;;;;;;;9.47;83.24;101105.91;4993296;28;20037;-60
2022/01/03 05:21:01;;;;;;;18.02;4.43;;;;;;;9.45;83.67;101094.34;5000315;28;20026;-63
2022/01/03 05:23:26;;;;;;;28.38;5.25;;;;;;;9.36;83.92;101099.22;4993530;28;20567;-60
2022/01/03 05:25:52;;;;;;;28.10;5.28;;;;;;;9.34;84.01;101090.38;4997469;28;20065;-59
2022/01/03 05:28:17;;;;;;;28.17;4.75;;;;;;;9.38;83.77;101089.94;5002895;28;20038;-59
2022/01/03 05:30:43;;;;;;;27.77;5.47;;;;;;;9.35;84.26;101097.53;4996971;28;20045;-60
2022/01/03 05:33:09;;;;;;;31.33;5.82;;;;;;;9.29;84.75;101090.19;5001008;28;20041;-60
2022/01/03 05:35:34;;;;;;;25.65;5.18;;;;;;;9.31;84.54;101089.97;5004394;28;20264;-60
2022/01/03 05:38:00;;;;;;;28.65;4.78;;;;;;;9.36;84.47;101107.44;5005085;28;20476;-60
2022/01/03 05:40:25;;;;;;;24.67;5.65;;;;;;;9.40;84.13;101082.34;4990411;28;20092;-60
2022/01/03 05:42:52;;;;;;;22.75;4.68;;;;;;;9.40;84.30;101087.81;4998419;28;21149;-60
2022/01/03 05:45:18;;;;;;;26.90;5.03;;;;;;;9.32;84.92;101087.00;5003882;28;20066;-60
2022/01/03 05:47:45;;;;;;;24.67;4.78;;;;;;;9.40;84.26;101098.78;5003576;28;20480;-60
2022/01/03 05:50:11;;;;;;;29.65;5.50;;;;;;;9.50;83.91;101088.19;4992762;28;20030;-60
2022/01/03 05:52:36;;;;;;;25.55;4.03;;;;;;;9.36;84.32;101081.94;4995525;28;20041;-60
2022/01/03 05:55:02;;;;;;;27.13;5.82;;;;;;;9.24;85.19;101084.50;5004194;28;20109;-61
2022/01/03 05:57:28;;;;;;;28.58;5.35;;;;;;;9.31;84.67;101079.00;4986337;28;20033;-60
2022/01/03 05:59:53;;;;;;;24.25;4.45;;;;;;;9.34;84.21;101075.84;4988087;28;20101;-60
2022/01/03 06:02:18;;;;;;;20.92;3.88;;;;;;;9.39;84.49;101080.66;4992617;28;20042;-60
2022/01/03 06:04:57;;;;;;;23.38;5.07;;;;;;;9.36;84.54;101076.44;4999062;28;20434;-60
2022/01/03 06:07:22;;;;;;;26.55;4.50;;;;;;;9.30;84.60;101074.56;4984464;28;20034;-60
2022/01/03 06:09:49;;;;;;;23.60;4.47;;;;;;;9.29;84.50;101079.22;4985218;28;20057;-60
2022/01/03 06:12:16;;;;;;;22.75;4.10;;;;;;;9.30;84.63;101069.94;5001479;28;20103;-60
2022/01/03 06:14:42;;;;;;;25.30;4.33;;;;;;;9.31;84.52;101088.06;5009618;28;20042;-60
2022/01/03 06:17:07;;;;;;;22.20;3.92;;;;;;;9.25;85.32;101074.38;4993500;28;20488;-60
2022/01/03 06:19:33;;;;;;;23.13;4.00;;;;;;;9.35;84.02;101075.59;4984649;28;20385;-60
2022/01/03 06:21:58;;;;;;;26.45;4.47;;;;;;;9.33;84.49;101076.91;5000598;28;20033;-60
2022/01/03 06:24:24;;;;;;;29.48;3.95;;;;;;;9.32;84.63;101073.28;5023855;28;20022;-60
2022/01/03 06:26:50;;;;;;;25.85;4.47;;;;;;;9.25;84.78;101080.72;5010415;28;20100;-58
2022/01/03 06:29:16;;;;;;;26.27;4.60;;;;;;;9.26;84.56;101084.28;4992484;28;20034;-58
2022/01/03 06:31:41;;;;;;;25.08;5.07;;;;;;;9.21;84.69;101082.19;4998669;28;20026;-58
2022/01/03 06:34:07;;;;;;;28.52;4.38;;;;;;;9.15;85.03;101074.84;4998532;28;20481;-58
2022/01/03 06:36:33;;;;;;;32.42;4.65;;;;;;;9.13;85.42;101071.47;5016820;28;20035;-58
2022/01/03 06:38:59;;;;;;;24.77;5.13;;;;;;;9.17;85.26;101066.41;5028601;28;20419;-58
2022/01/03 06:41:25;;;;;;;26.38;3.95;;;;;;;9.05;85.74;101069.81;5009681;28;20549;-58
2022/01/03 06:43:51;;;;;;;25.20;3.78;;;;;;;9.01;85.75;101076.75;5027576;28;20033;-58
2022/01/03 06:46:17;;;;;;;23.27;3.92;;;;;;;9.02;85.85;101063.91;5016364;28;20060;-58
2022/01/03 06:48:43;;;;;;;24.70;5.07;;;;;;;9.00;86.08;101066.03;5007464;28;20034;-58
2022/01/03 06:51:09;;;;;;;18.15;3.95;;;;;;;8.98;86.36;101068.16;5006525;28;20026;-58
2022/01/03 06:53:35;;;;;;;30.73;4.20;;;;;;;9.06;85.95;101063.25;5007690;28;20082;-58
2022/01/03 06:56:00;;;;;;;26.15;4.38;;;;;;;9.04;86.42;101061.81;5012809;28;20528;-58
2022/01/03 06:58:25;;;;;;;25.33;4.95;;;;;;;9.01;86.25;101064.97;4986811;28;20424;-57
2022/01/03 07:00:50;;;;;;;16.73;3.72;;;;;;;9.02;86.48;101053.81;5003838;28;20038;-58
2022/01/03 07:03:16;;;;;;;23.85;3.85;;;;;;;9.09;86.37;101062.00;5006506;28;20069;-58
2022/01/03 07:05:41;;;;;;;25.92;4.07;;;;;;;9.09;86.56;101056.53;4991912;28;20092;-58
2022/01/03 07:08:06;;;;;;;21.85;4.75;;;;;;;9.06;86.97;101059.69;5007112;28;20038;-58
2022/01/03 07:10:32;;;;;;;17.48;3.03;;;;;;;9.04;87.40;101059.91;5001506;28;20097;-59
2022/01/03 07:12:59;;;;;;;21.30;3.83;;;;;;;9.05;87.39;101050.63;5027558;28;20021;-58
2022/01/03 07:20:53;;;;;;;23.15;5.03;;;;;;;9.04;87.83;101046.22;5009180;28;20515;-58
2022/01/03 07:23:21;;;;;;;20.90;4.65;;;;;;;9.08;87.69;101055.69;5004951;28;20037;-58
2022/01/03 07:25:46;;;;;;;17.58;3.97;;;;;;;9.03;88.58;101054.66;4999902;28;20068;-58
2022/01/03 07:28:14;;;;;;;18.17;3.65;;;;;;;9.04;88.44;101057.16;5006931;28;20436;-57
2022/01/03 07:30:39;;;;;;;21.35;4.63;;;;;;;9.05;88.45;101056.09;5007065;28;20025;-57
2022/01/03 07:33:04;;;;;;;23.50;4.55;;;;;;;9.05;88.54;101058.84;5003266;28;20025;-58
2022/01/03 07:35:29;;;;;;;24.33;4.43;;;;;;;8.98;88.79;101051.72;5007372;28;20064;-58
2022/01/03 07:37:55;;;;;;;19.90;4.43;;;;;;;8.94;88.88;101053.19;5009393;28;20469;-57
2022/01/03 07:40:21;;;;;;;24.83;4.25;;;;;;;8.90;89.07;101054.69;5005801;28;20034;-58
2022/01/03 07:42:46;;;;;;;19.73;4.10;;;;;;;8.81;89.44;101054.06;5006563;28;20049;-58
2022/01/03 07:45:12;;;;;;;20.02;3.13;;;;;;;8.80;89.46;101053.22;5006523;28;20576;-60
2022/01/03 07:47:38;;;;;;;20.30;3.55;;;;;;;8.86;89.09;101061.63;4994752;28;20026;-59
2022/01/03 07:50:06;;;;;;;21.92;3.60;;;;;;;8.81;89.51;101060.38;4989642;28;21041;-60
2022/01/03 07:52:31;;;;;;;19.40;3.97;;;;;;;8.80;89.17;101066.06;5008067;28;20096;-63
2022/01/03 07:54:57;;;;;;;21.83;3.85;;;;;;;8.81;89.36;101062.28;4987616;28;20030;-60
2022/01/03 07:57:22;;;;;;;20.63;3.70;;;;;;;8.86;88.75;101069.84;4993849;28;20048;-60
2022/01/03 07:59:47;;;;;;;15.40;3.65;;;;;;;8.81;89.11;101073.22;5006511;28;20129;-60
2022/01/03 08:02:13;;;;;;;16.73;3.80;;;;;;;8.83;88.79;101082.09;4997498;28;20679;-59
2022/01/03 08:04:38;;;;;;;22.88;4.03;;;;;;;8.88;88.49;101081.47;4986627;28;20081;-59
2022/01/03 08:07:04;;;;;;;19.33;3.85;;;;;;;8.87;88.88;101071.53;4993522;28;20052;-60
2022/01/03 08:09:29;;;;;;;17.83;3.20;;;;;;;9.02;87.70;101074.88;5008705;28;20051;-60
2022/01/03 08:11:54;;;;;;;19.50;3.75;;;;;;;9.08;87.70;101063.91;5004212;28;20405;-60
2022/01/03 08:14:20;;;;;;;21.33;4.30;;;;;;;9.06;87.71;101060.53;5004842;28;20029;-60
2022/01/03 08:16:45;;;;;;;21.05;3.97;;;;;;;9.07;87.68;101075.94;5005284;28;20333;-60
2022/01/03 08:19:11;;;;;;;21.52;3.97;;;;;;;9.09;87.41;101057.38;5005976;28;20022;-60
2022/01/03 08:21:36;;;;;;;21.85;3.88;;;;;;;9.10;88.09;101066.44;5020768;28;20034;-60
2022/01/03 08:24:01;;;;;;;21.10;3.75;;;;;;;9.12;87.68;101063.47;5012838;28;20026;-60
2022/01/03 08:26:26;;;;;;;19.88;3.65;;;;;;;9.15;87.70;101071.25;5006992;28;20140;-59
2022/01/03 08:28:52;;;;;;;17.73;3.83;;;;;;;9.18;87.39;101079.06;5005781;28;20026;-59
2022/01/03 08:31:17;;;;;;;19.27;3.97;;;;;;;9.22;87.47;101064.69;5005687;28;20050;-60
2022/01/03 08:33:43;;;;;;;17.55;3.85;;;;;;;9.25;86.78;101069.75;5003207;28;20025;-60
2022/01/03 08:36:08;;;;;;;18.40;3.92;;;;;;;9.29;86.71;101059.19;4986978;28;20112;-60
2022/01/03 08:38:34;;;;;;;23.52;4.00;;;;;;;9.31;86.92;101057.91;5011977;28;20865;-59
2022/01/03 08:40:59;;;;;;;20.00;4.00;;;;;;;9.29;86.88;101053.72;5019718;28;20048;-60
2022/01/03 08:43:24;;;;;;;21.08;4.28;;;;;;;9.42;85.56;101061.88;4985954;28;20038;-59
2022/01/03 08:45:49;;;;;;;25.13;4.60;;;;;;;9.38;86.42;101055.16;4986576;28;20031;-60
2022/01/03 08:48:15;;;;;;;20.63;3.95;;;;;;;9.42;86.15;101063.75;5010079;28;20060;-60
2022/01/03 08:50:40;;;;;;;22.15;4.57;;;;;;;9.44;86.36;101075.38;5005463;28;20487;-59
2022/01/03 08:53:05;;;;;;;25.98;5.05;;;;;;;9.42;86.37;101074.72;4985318;28;20030;-60
2022/01/03 08:55:31;;;;;;;23.38;4.70;;;;;;;9.48;85.85;101084.81;4986110;28;20666;-59
2022/01/03 08:57:57;;;;;;;24.77;4.20;;;;;;;9.48;85.88;101085.69;5003064;28;20057;-60
2022/01/03 09:00:22;;;;;;;23.23;4.63;;;;;;;9.56;84.99;101090.06;5005950;28;20029;-60
2022/01/03 09:02:47;;;;;;;21.90;4.10;;;;;;;9.53;85.79;101101.47;5003370;28;20112;-60
2022/01/03 09:05:13;;;;;;;21.63;4.72;;;;;;;9.50;86.04;101094.53;5005222;28;20420;-60
2022/01/03 09:07:38;;;;;;;23.70;4.57;;;;;;;9.57;85.87;101095.31;4992044;28;20121;-59
2022/01/03 09:10:05;;;;;;;21.15;4.18;;;;;;;9.73;85.01;101099.50;4988581;28;20104;-60
2022/01/03 09:12:30;;;;;;;19.30;3.85;;;;;;;9.87;84.38;101083.78;5002304;28;20029;-59
2022/01/03 09:14:55;;;;;;;22.70;4.35;;;;;;;9.98;83.81;101079.50;5004971;28;20038;-59
2022/01/03 09:17:21;;;;;;;20.55;3.97;;;;;;;9.95;83.46;101072.56;4997842;28;20058;-59
2022/01/03 09:19:46;;;;;;;25.83;4.70;;;;;;;9.92;83.63;101066.66;4985289;28;20019;-59
2022/01/03 09:22:16;;;;;;;22.40;4.03;;;;;;;9.89;83.29;101065.22;4994064;28;20037;-60
2022/01/03 09:24:52;;;;;;;25.27;3.75;;;;;;;9.86;83.60;101058.25;5004073;28;20038;-59
2022/01/03 09:30:04;;;;;;;25.70;4.03;;;;;;;9.95;83.90;101063.50;5008764;28;20040;-59
2022/01/03 09:32:29;;;;;;;19.48;3.38;;;;;;;10.07;83.46;101062.53;5009227;28;20450;-59
2022/01/03 09:34:57;;;;;;;24.52;4.15;;;;;;;10.13;82.43;101058.06;4986984;28;20022;-58
2022/01/03 09:37:23;;;;;;;19.77;3.53;;;;;;;10.19;82.03;101051.69;4984804;28;20493;-59
2022/01/03 09:39:48;;;;;;;24.58;3.83;;;;;;;10.11;82.22;101049.22;5010821;28;20046;-59
2022/01/03 09:42:19;;;;;;;22.95;3.85;;;;;;;10.18;81.56;101041.75;4984662;28;20049;-58
2022/01/03 09:44:45;;;;;;;20.23;4.63;;;;;;;10.06;82.32;101032.59;4987949;28;20038;-59
2022/01/03 09:47:13;;;;;;;23.38;4.30;;;;;;;10.13;82.27;101039.69;5023250;28;20064;-58
2022/01/03 09:49:40;;;;;;;17.60;4.10;;;;;;;10.18;82.35;101040.94;5022316;28;20098;-59
2022/01/03 09:52:07;;;;;;;24.70;4.18;;;;;;;10.39;81.23;101041.44;5004342;28;20018;-58
2022/01/03 09:54:33;;;;;;;27.30;4.90;;;;;;;10.55;80.45;101052.91;5004401;28;20033;-58
2022/01/03 09:57:00;;;;;;;18.52;4.57;;;;;;;10.71;80.16;101048.72;5000380;28;20280;-58
2022/01/03 09:59:27;;;;;;;19.90;3.83;;;;;;;10.96;79.64;101045.94;5024056;28;20049;-59
2022/01/03 10:01:53;;;;;;;21.17;3.75;;;;;;;11.12;78.73;101037.06;4996371;28;20123;-58
2022/01/03 10:04:18;;;;;;;22.17;3.70;;;;;;;11.21;78.22;101038.44;5003240;28;20093;-58
2022/01/03 10:06:44;;;;;;;23.63;4.15;;;;;;;11.26;76.63;101044.09;4988533;28;20491;-58
2022/01/03 10:09:09;;;;;;;24.65;4.65;;;;;;;11.21;77.15;101046.69;4984511;28;20017;-58
2022/01/03 10:11:34;;;;;;;21.27;4.90;;;;;;;11.02;77.79;101045.03;4992802;28;20100;-58
2022/01/03 10:14:00;;;;;;;22.80;4.25;;;;;;;10.86;78.38;101052.78;5003348;28;20042;-59
2022/01/03 10:16:28;;;;;;;22.33;4.22;;;;;;;10.78;78.90;101033.84;4991130;28;20205;-58
2022/01/03 10:18:53;;;;;;;23.75;4.43;;;;;;;10.80;79.56;101045.47;4984887;28;20132;-58
2022/01/03 10:21:46;;;;;;;23.48;4.30;;;;;;;11.06;78.45;101043.50;4991022;28;20053;-59
2022/01/03 10:24:15;;;;;;;25.70;4.63;;;;;;;11.52;76.92;101042.91;5002973;28;20038;-59
2022/01/03 10:26:43;;;;;;;19.80;4.40;;;;;;;11.62;75.55;101045.09;4986887;28;20591;-58
2022/01/03 10:29:20;;;;;;;22.15;4.07;;;;;;;11.41;77.08;101050.03;4984568;28;20129;-59
2022/01/03 10:31:48;;;;;;;19.70;4.30;;;;;;;11.38;76.43;101052.41;4984736;28;20026;-58
2022/01/03 10:34:16;;;;;;;23.38;4.00;;;;;;;11.08;76.92;101035.84;4996583;28;20980;-59
2022/01/03 10:36:45;;;;;;;23.10;4.65;;;;;;;10.95;77.75;101030.50;5003844;28;20157;-58
2022/01/03 10:39:15;;;;;;;21.63;4.28;;;;;;;10.91;78.03;101039.22;5001472;28;20080;-59
2022/01/03 10:41:41;;;;;;;21.65;4.95;;;;;;;10.81;78.50;101033.41;5005562;28;20026;-59
2022/01/03 10:44:07;;;;;;;20.88;4.80;;;;;;;10.75;78.77;101034.31;4998073;28;20068;-59
2022/01/03 10:46:34;;;;;;;25.73;4.30;;;;;;;10.67;79.07;101023.63;4983187;28;20499;-59
2022/01/03 10:49:13;;;;;;;20.58;4.35;;;;;;;10.61;79.70;101019.03;4985705;28;20054;-58
2022/01/03 10:51:39;;;;;;;28.40;5.85;;;;;;;10.56;79.37;101016.97;4994899;28;20030;-58
2022/01/03 10:54:09;;;;;;;20.30;4.35;;;;;;;10.51;79.98;101015.97;4987346;28;20397;-58
2022/01/03 10:56:41;;;;;;;25.35;5.00;;;;;;;10.50;79.96;101008.81;4984284;28;20054;-59
2022/01/03 10:59:15;;;;;;;21.60;4.00;;;;;;;10.46;79.77;101011.16;4990153;28;20489;-59
2022/01/03 11:01:43;;;;;;;17.98;3.90;;;;;;;10.57;79.74;101004.91;4984107;28;20034;-59
2022/01/03 11:04:11;;;;;;;21.10;5.00;;;;;;;10.55;79.17;101001.56;4986509;28;20057;-59
2022/01/03 11:06:50;;;;;;;15.77;4.40;;;;;;;10.48;79.64;100997.19;5000403;28;20388;-59
2022/01/03 11:12:17;;;;;;;19.70;5.35;;;;;;;10.45;80.54;100989.41;5001154;28;20076;-59
2022/01/03 11:14:43;;;;;;;19.70;5.03;;;;;;;10.48;79.86;100991.69;5001039;28;20034;-59
2022/01/03 11:17:27;;;;;;;20.67;4.13;;;;;;;10.48;80.35;100988.94;5005607;28;20022;-59
2022/01/03 11:19:58;;;;;;;20.88;4.80;;;;;;;10.54;79.31;100977.91;4992980;28;20025;-59
2022/01/03 11:22:43;;;;;;;24.52;4.95;;;;;;;10.45;80.46;100987.50;4991534;28;20583;-59
2022/01/03 11:25:09;;;;;;;17.60;4.00;;;;;;;10.43;80.41;100977.81;5000266;28;20025;-59
2022/01/03 11:27:38;;;;;;;20.63;5.00;;;;;;;10.45;80.11;100992.16;4997444;28;20378;-58
2022/01/03 11:30:06;;;;;;;23.00;3.70;;;;;;;10.42;80.33;100982.47;5003871;28;20628;-59
2022/01/03 11:32:33;;;;;;;24.20;4.53;;;;;;;10.47;80.00;100979.03;5002545;28;20058;-62
2022/01/03 11:35:00;;;;;;;23.75;4.80;;;;;;;10.72;80.09;100968.84;5006699;28;20296;-59